Terminal Aerodrome Forecast
Issued by NWS

Home | Current Version | Previous Version | Text Only | Print | Product List | Glossary Off
Versions: 1 2 3 4 5 6 7 8 9 10 11 12 13 14 15 16 17 18 19

000
FTUS43 KGRB 280900 AAA
TAFRHI
TAF AMD
KRHI 280940Z 2810/2906 27011KT P6SM SCT013 BKN070
      TEMPO 2810/2814 BKN013
     FM281500 25013G23KT P6SM SCT020 OVC035
     FM281800 25013G23KT P6SM -SHRA BKN020 OVC035
     FM290300 26009G14KT P6SM -SHRASN BKN015 OVC030=

USA.gov is the U.S. government's official web portal to all federal, state and local government web resources and services.